Time,TemperatureF,DewpointF,PressureIn,WindDirection,WindDirectionDegrees,WindSpeedMPH,WindSpeedGustMPH,Humidity,HourlyPrecipIn,Conditions,Clouds,dailyrainin,SoftwareType,DateUTC
2013-02-16 00:03:00,28.2,24.8,30.38,South,171,0.0,0.0,87,0.00,,,0.00,VWS V14.01,2013-02-16 07:03:00,
2013-02-16 00:08:00,27.8,24.4,30.38,South,171,0.0,0.0,87,0.00,,,0.00,VWS V14.01,2013-02-16 07:08:00,
2013-02-16 00:13:00,27.6,24.5,30.38,South,171,0.0,0.0,88,0.00,,,0.00,VWS V14.01,2013-02-16 07:13:00,
2013-02-16 00:18:00,27.7,24.6,30.38,South,171,0.0,0.0,88,0.00,,,0.00,VWS V14.01,2013-02-16 07:18:00,
2013-02-16 00:23:00,27.9,24.8,30.38,South,171,0.0,0.0,88,0.00,,,0.00,VWS V14.01,2013-02-16 07:23:00,
2013-02-16 00:28:00,28.0,24.9,30.38,South,171,0.0,0.0,88,0.00,,,0.00,VWS V14.01,2013-02-16 07:28:00,
2013-02-16 00:33:00,28.0,24.9,30.38,South,171,0.0,0.0,88,0.00,,,0.00,VWS V14.01,2013-02-16 07:33:00,
2013-02-16 00:38:00,27.8,24.7,30.37,South,171,0.0,0.0,88,0.00,,,0.00,VWS V14.01,2013-02-16 07:38:00,
2013-02-16 00:43:00,27.6,24.5,30.37,South,171,0.0,0.0,88,0.00,,,0.00,VWS V14.01,2013-02-16 07:43:00,
2013-02-16 00:48:00,27.6,24.5,30.37,South,171,0.0,0.0,88,0.00,,,0.00,VWS V14.01,2013-02-16 07:48:00,
2013-02-16 00:53:00,27.5,24.4,30.37,South,171,0.0,0.0,88,0.00,,,0.00,VWS V14.01,2013-02-16 07:53:00,
2013-02-16 00:58:00,27.2,24.1,30.37,South,171,0.0,0.0,88,0.00,,,0.00,VWS V14.01,2013-02-16 07:58:00,
2013-02-16 01:03:00,26.9,23.8,30.37,South,171,0.0,0.0,88,0.00,,,0.00,VWS V14.01,2013-02-16 08:03:00,
2013-02-16 01:08:00,26.5,23.4,30.37,South,171,0.0,0.0,88,0.00,,,0.00,VWS V14.01,2013-02-16 08:08:00,
2013-02-16 01:13:00,26.1,23.0,30.37,South,171,0.0,0.0,88,0.00,,,0.00,VWS V14.01,2013-02-16 08:13:00,
2013-02-16 01:18:00,25.9,23.1,30.37,South,171,0.0,0.0,89,0.00,,,0.00,VWS V14.01,2013-02-16 08:18:00,
2013-02-16 01:23:00,25.8,23.0,30.37,South,171,0.0,0.0,89,0.00,,,0.00,VWS V14.01,2013-02-16 08:23:00,
2013-02-16 01:28:00,25.7,23.2,30.37,South,171,0.0,0.0,90,0.00,,,0.00,VWS V14.01,2013-02-16 08:28:00,
2013-02-16 01:33:00,26.1,23.6,30.37,South,171,0.0,0.0,90,0.00,,,0.00,VWS V14.01,2013-02-16 08:33:00,
2013-02-16 01:38:00,26.2,23.7,30.37,South,171,0.0,0.0,90,0.00,,,0.00,VWS V14.01,2013-02-16 08:38:00,
2013-02-16 01:43:00,26.3,23.8,30.37,South,171,0.0,0.0,90,0.00,,,0.00,VWS V14.01,2013-02-16 08:43:00,
2013-02-16 01:48:00,26.2,23.7,30.37,South,171,0.0,0.0,90,0.00,,,0.00,VWS V14.01,2013-02-16 08:48:00,
2013-02-16 01:53:00,26.2,23.7,30.37,South,171,0.0,0.0,90,0.00,,,0.00,VWS V14.01,2013-02-16 08:53:00,
2013-02-16 01:58:00,26.2,23.7,30.36,South,171,0.0,0.0,90,0.00,,,0.00,VWS V14.01,2013-02-16 08:58:00,
2013-02-16 02:03:00,26.1,23.6,30.37,South,171,0.0,0.0,90,0.00,,,0.00,VWS V14.01,2013-02-16 09:03:00,
2013-02-16 02:08:00,26.0,23.5,30.37,South,171,0.0,0.0,90,0.00,,,0.00,VWS V14.01,2013-02-16 09:08:00,
2013-02-16 02:13:00,26.0,23.5,30.36,South,171,0.0,0.0,90,0.00,,,0.00,VWS V14.01,2013-02-16 09:13:00,
2013-02-16 02:18:00,26.2,23.7,30.36,South,171,0.0,2.0,90,0.00,,,0.00,VWS V14.01,2013-02-16 09:18:00,
2013-02-16 02:23:00,26.5,24.0,30.36,South,171,0.0,2.0,90,0.00,,,0.00,VWS V14.01,2013-02-16 09:23:00,
2013-02-16 02:28:00,26.4,23.9,30.36,South,171,0.0,2.0,90,0.00,,,0.00,VWS V14.01,2013-02-16 09:28:00,
2013-02-16 02:33:00,25.9,23.4,30.36,South,171,0.0,0.0,90,0.00,,,0.00,VPLive 1.2.5.27,2013-02-16 09:33:00,
2013-02-16 02:38:00,25.9,23.4,30.36,South,171,0.0,0.0,90,0.00,,,0.00,VWS V14.01,2013-02-16 09:38:00,
2013-02-16 02:43:00,26.0,23.5,30.36,South,171,0.0,0.0,90,0.00,,,0.00,VWS V14.01,2013-02-16 09:43:00,
2013-02-16 02:48:00,26.0,23.5,30.36,South,171,0.0,0.0,90,0.00,,,0.00,VPLive 1.2.5.27,2013-02-16 09:48:00,
2013-02-16 02:53:00,26.0,23.5,30.35,South,171,0.0,0.0,90,0.00,,,0.00,VWS V14.01,2013-02-16 09:53:00,
2013-02-16 02:58:00,26.1,23.6,30.35,South,171,0.0,0.0,90,0.00,,,0.00,VWS V14.01,2013-02-16 09:58:00,
2013-02-16 03:03:00,26.0,23.7,30.35,South,171,0.0,0.0,91,0.00,,,0.00,VWS V14.01,2013-02-16 10:03:00,
2013-02-16 03:08:00,25.6,23.1,30.34,South,171,0.0,0.0,90,0.00,,,0.00,VWS V14.01,2013-02-16 10:08:00,
2013-02-16 03:13:00,25.3,22.8,30.34,South,171,0.0,0.0,90,0.00,,,0.00,VWS V14.01,2013-02-16 10:13:00,
2013-02-16 03:18:00,24.9,22.4,30.34,South,171,0.0,2.0,90,0.00,,,0.00,VWS V14.01,2013-02-16 10:18:00,
2013-02-16 03:23:00,24.7,22.2,30.34,South,171,0.0,2.0,90,0.00,,,0.00,VWS V14.01,2013-02-16 10:23:00,
2013-02-16 03:28:00,24.7,22.2,30.34,South,171,0.0,2.0,90,0.00,,,0.00,VWS V14.01,2013-02-16 10:28:00,
2013-02-16 03:33:00,24.8,22.5,30.34,South,171,0.0,0.0,91,0.00,,,0.00,VWS V14.01,2013-02-16 10:33:00,
2013-02-16 03:38:00,24.9,22.4,30.34,South,171,0.0,0.0,90,0.00,,,0.00,VWS V14.01,2013-02-16 10:38:00,
2013-02-16 03:42:00,25.0,22.5,30.33,South,171,0.0,0.0,90,0.00,,,0.00,VWS V14.01,2013-02-16 10:42:00,
2013-02-16 03:47:00,25.0,22.5,30.33,South,171,0.0,0.0,90,0.00,,,0.00,VWS V14.01,2013-02-16 10:47:00,
2013-02-16 03:52:00,24.9,22.6,30.33,South,171,0.0,0.0,91,0.00,,,0.00,VWS V14.01,2013-02-16 10:52:00,
2013-02-16 03:57:00,25.0,22.5,30.33,South,171,0.0,0.0,90,0.00,,,0.00,VWS V14.01,2013-02-16 10:57:00,
2013-02-16 04:02:00,25.2,22.7,30.33,South,171,0.0,2.0,90,0.00,,,0.00,VWS V14.01,2013-02-16 11:02:00,
2013-02-16 04:07:00,25.4,23.1,30.33,South,171,0.0,2.0,91,0.00,,,0.00,VWS V14.01,2013-02-16 11:07:00,
2013-02-16 04:12:00,25.4,22.9,30.33,South,171,0.0,2.0,90,0.00,,,0.00,VWS V14.01,2013-02-16 11:12:00,
2013-02-16 04:17:00,25.2,22.7,30.33,South,171,0.0,2.0,90,0.00,,,0.00,VWS V14.01,2013-02-16 11:17:00,
2013-02-16 04:22:00,24.9,22.4,30.33,South,171,0.0,2.0,90,0.00,,,0.00,VWS V14.01,2013-02-16 11:22:00,
2013-02-16 04:27:00,24.7,22.5,30.33,South,171,0.0,2.0,91,0.00,,,0.00,VWS V14.01,2013-02-16 11:27:00,
2013-02-16 04:32:00,24.6,22.1,30.32,South,171,0.0,0.0,90,0.00,,,0.00,VWS V14.01,2013-02-16 11:32:00,
2013-02-16 04:37:00,24.7,22.5,30.32,South,171,0.0,0.0,91,0.00,,,0.00,VWS V14.01,2013-02-16 11:37:00,
2013-02-16 04:42:00,24.6,22.4,30.32,South,171,0.0,0.0,91,0.00,,,0.00,VWS V14.01,2013-02-16 11:42:00,
2013-02-16 04:47:00,24.5,22.0,30.32,South,171,0.0,0.0,90,0.00,,,0.00,VWS V14.01,2013-02-16 11:47:00,
2013-02-16 04:52:00,24.5,22.0,30.32,South,171,0.0,0.0,90,0.00,,,0.00,VWS V14.01,2013-02-16 11:52:00,
2013-02-16 04:57:00,24.3,22.1,30.31,South,171,0.0,0.0,91,0.00,,,0.00,VWS V14.01,2013-02-16 11:57:00,
2013-02-16 05:02:00,24.2,22.0,30.31,South,171,0.0,0.0,91,0.00,,,0.00,VWS V14.01,2013-02-16 12:02:00,
2013-02-16 05:07:00,24.1,21.9,30.31,South,171,0.0,0.0,91,0.00,,,0.00,VWS V14.01,2013-02-16 12:07:00,
2013-02-16 05:12:00,23.8,21.6,30.31,South,171,0.0,0.0,91,0.00,,,0.00,VWS V14.01,2013-02-16 12:12:00,
2013-02-16 05:17:00,23.8,21.6,30.31,South,171,0.0,0.0,91,0.00,,,0.00,VWS V14.01,2013-02-16 12:17:00,
2013-02-16 05:22:00,24.0,21.8,30.31,South,171,0.0,0.0,91,0.00,,,0.00,VWS V14.01,2013-02-16 12:22:00,
2013-02-16 05:27:00,23.7,21.5,30.31,South,171,0.0,0.0,91,0.00,,,0.00,VWS V14.01,2013-02-16 12:27:00,
2013-02-16 05:32:00,23.8,21.6,30.31,South,171,0.0,0.0,91,0.00,,,0.00,VWS V14.01,2013-02-16 12:32:00,
2013-02-16 05:37:00,24.1,21.9,30.30,South,171,0.0,0.0,91,0.00,,,0.00,VWS V14.01,2013-02-16 12:37:00,
2013-02-16 05:42:00,24.3,21.8,30.30,South,171,0.0,0.0,90,0.00,,,0.00,VWS V14.01,2013-02-16 12:42:00,
2013-02-16 05:47:00,24.4,21.9,30.30,South,171,0.0,0.0,90,0.00,,,0.00,VWS V14.01,2013-02-16 12:47:00,
2013-02-16 05:52:00,24.1,21.9,30.30,South,171,0.0,0.0,91,0.00,,,0.00,VWS V14.01,2013-02-16 12:52:00,
2013-02-16 05:57:00,24.0,21.8,30.29,South,171,0.0,0.0,91,0.00,,,0.00,VWS V14.01,2013-02-16 12:57:00,
2013-02-16 06:02:00,24.1,21.9,30.29,South,171,0.0,0.0,91,0.00,,,0.00,VWS V14.01,2013-02-16 13:02:00,
2013-02-16 06:07:00,23.7,21.2,30.30,South,171,0.0,2.0,90,0.00,,,0.00,VWS V14.01,2013-02-16 13:07:00,
2013-02-16 06:12:00,23.2,20.7,30.29,South,171,0.0,2.0,90,0.00,,,0.00,VWS V14.01,2013-02-16 13:12:00,
2013-02-16 06:17:00,23.3,20.8,30.29,South,171,0.0,2.0,90,0.00,,,0.00,VWS V14.01,2013-02-16 13:17:00,
2013-02-16 06:22:00,23.4,20.9,30.28,South,171,0.0,2.0,90,0.00,,,0.00,VWS V14.01,2013-02-16 13:22:00,
2013-02-16 06:27:00,23.5,21.3,30.28,South,171,0.0,2.0,91,0.00,,,0.00,VWS V14.01,2013-02-16 13:27:00,
2013-02-16 06:32:00,23.5,21.3,30.28,South,171,0.0,0.0,91,0.00,,,0.00,VWS V14.01,2013-02-16 13:32:00,
2013-02-16 06:37:00,23.0,20.8,30.28,South,171,0.0,0.0,91,0.00,,,0.00,VWS V14.01,2013-02-16 13:37:00,
2013-02-16 06:42:00,22.7,20.5,30.28,South,171,0.0,0.0,91,0.00,,,0.00,VWS V14.01,2013-02-16 13:42:00,
2013-02-16 06:47:00,22.8,20.3,30.29,South,171,0.0,0.0,90,0.00,,,0.00,VWS V14.01,2013-02-16 13:47:00,
2013-02-16 06:52:00,22.8,20.3,30.28,South,171,0.0,0.0,90,0.00,,,0.00,VWS V14.01,2013-02-16 13:52:00,
2013-02-16 06:57:00,22.5,20.3,30.29,South,171,0.0,0.0,91,0.00,,,0.00,VWS V14.01,2013-02-16 13:57:00,
2013-02-16 07:02:00,22.3,20.1,30.28,South,171,0.0,0.0,91,0.00,,,0.00,VWS V14.01,2013-02-16 14:02:00,
2013-02-16 07:07:00,22.5,20.3,30.28,South,171,0.0,0.0,91,0.00,,,0.00,VWS V14.01,2013-02-16 14:07:00,
2013-02-16 07:12:00,22.5,20.3,30.28,South,171,0.0,0.0,91,0.00,,,0.00,VWS V14.01,2013-02-16 14:12:00,
2013-02-16 07:17:00,22.6,20.1,30.28,South,171,0.0,0.0,90,0.00,,,0.00,VWS V14.01,2013-02-16 14:17:00,
2013-02-16 07:22:00,22.7,20.2,30.27,South,171,0.0,0.0,90,0.00,,,0.00,VWS V14.01,2013-02-16 14:22:00,
2013-02-16 07:28:00,22.8,20.3,30.27,South,171,0.0,0.0,90,0.00,,,0.00,VWS V14.01,2013-02-16 14:28:00,
2013-02-16 07:32:00,23.0,20.8,30.27,South,171,2.0,2.0,91,0.00,,,0.00,VWS V14.01,2013-02-16 14:32:00,
2013-02-16 07:37:00,23.1,20.9,30.27,South,171,0.0,2.0,91,0.00,,,0.00,VWS V14.01,2013-02-16 14:37:00,
2013-02-16 07:42:00,22.7,20.2,30.26,SSW,198,3.0,5.0,90,0.00,,,0.00,VWS V14.01,2013-02-16 14:42:00,
2013-02-16 07:47:00,22.6,20.1,30.26,SSW,198,0.0,5.0,90,0.00,,,0.00,VWS V14.01,2013-02-16 14:47:00,
2013-02-16 07:52:00,22.4,20.2,30.27,SSW,198,0.0,5.0,91,0.00,,,0.00,VWS V14.01,2013-02-16 14:52:00,
2013-02-16 07:57:00,21.7,19.5,30.27,SSW,198,0.0,5.0,91,0.00,,,0.00,VWS V14.01,2013-02-16 14:57:00,
2013-02-16 08:02:00,21.7,19.5,30.27,SSW,198,0.0,0.0,91,0.00,,,0.00,VWS V14.01,2013-02-16 15:02:00,
2013-02-16 08:07:00,22.1,19.9,30.27,SSW,198,0.0,0.0,91,0.00,,,0.00,VWS V14.01,2013-02-16 15:07:00,
2013-02-16 08:12:00,23.0,20.5,30.27,SSW,198,0.0,0.0,90,0.00,,,0.00,VWS V14.01,2013-02-16 15:12:00,
2013-02-16 08:17:00,22.8,20.3,30.26,SSW,198,0.0,2.0,90,0.00,,,0.00,VWS V14.01,2013-02-16 15:17:00,
2013-02-16 08:22:00,22.6,20.4,30.26,SSW,198,0.0,2.0,91,0.00,,,0.00,VWS V14.01,2013-02-16 15:22:00,
2013-02-16 08:27:00,22.5,20.3,30.26,SSW,198,0.0,2.0,91,0.00,,,0.00,VWS V14.01,2013-02-16 15:27:00,
2013-02-16 08:32:00,22.4,20.2,30.26,SSW,198,0.0,0.0,91,0.00,,,0.00,VWS V14.01,2013-02-16 15:32:00,
2013-02-16 08:37:00,22.6,20.4,30.26,SSW,198,0.0,0.0,91,0.00,,,0.00,VWS V14.01,2013-02-16 15:37:00,
2013-02-16 08:42:00,22.9,20.7,30.26,SSW,198,0.0,1.0,91,0.00,,,0.00,VWS V14.01,2013-02-16 15:42:00,
2013-02-16 08:47:00,22.9,20.7,30.25,SSW,198,2.0,3.0,91,0.00,,,0.00,VWS V14.01,2013-02-16 15:47:00,
2013-02-16 08:52:00,23.0,20.8,30.26,SSW,198,0.0,3.0,91,0.00,,,0.00,VWS V14.01,2013-02-16 15:52:00,
2013-02-16 08:57:00,23.3,20.8,30.25,SSW,198,0.0,3.0,90,0.00,,,0.00,VWS V14.01,2013-02-16 15:57:00,
2013-02-16 09:02:00,23.8,21.3,30.25,SSW,198,0.0,0.0,90,0.00,,,0.00,VWS V14.01,2013-02-16 16:02:00,
2013-02-16 09:07:00,24.0,21.8,30.25,SSW,198,0.0,0.0,91,0.00,,,0.00,VWS V14.01,2013-02-16 16:07:00,
2013-02-16 09:12:00,24.2,22.0,30.25,SSW,198,0.0,0.0,91,0.00,,,0.00,VWS V14.01,2013-02-16 16:12:00,
2013-02-16 09:17:00,24.4,21.9,30.25,SSW,198,0.0,0.0,90,0.00,,,0.00,VWS V14.01,2013-02-16 16:17:00,
2013-02-16 09:22:00,24.7,22.5,30.25,SSW,198,0.0,1.0,91,0.00,,,0.00,VWS V14.01,2013-02-16 16:22:00,
2013-02-16 09:27:00,24.9,22.4,30.25,SSW,198,0.0,1.0,90,0.00,,,0.00,VWS V14.01,2013-02-16 16:27:00,
2013-02-16 09:32:00,25.2,22.7,30.25,SSW,198,0.0,0.0,90,0.00,,,0.00,VWS V14.01,2013-02-16 16:32:00,
2013-02-16 09:37:00,25.5,23.0,30.25,SSW,198,0.0,1.0,90,0.00,,,0.00,VWS V14.01,2013-02-16 16:37:00,
2013-02-16 09:42:00,25.7,23.4,30.25,SSW,198,0.0,2.0,91,0.00,,,0.00,VWS V14.01,2013-02-16 16:42:00,
2013-02-16 09:47:00,25.8,23.5,30.24,SSW,198,0.0,2.0,91,0.00,,,0.00,VWS V14.01,2013-02-16 16:47:00,
2013-02-16 09:52:00,26.0,23.7,30.24,SSW,198,0.0,2.0,91,0.00,,,0.00,VWS V14.01,2013-02-16 16:52:00,
2013-02-16 09:57:00,26.2,23.7,30.24,SSW,198,2.0,2.0,90,0.00,,,0.00,VWS V14.01,2013-02-16 16:57:00,
2013-02-16 10:02:00,26.2,23.7,30.24,SSW,198,0.0,0.0,90,0.00,,,0.00,VWS V14.01,2013-02-16 17:02:00,
2013-02-16 10:07:00,26.4,24.1,30.24,SSW,198,0.0,0.0,91,0.00,,,0.00,VWS V14.01,2013-02-16 17:07:00,
2013-02-16 10:12:00,26.6,24.3,30.23,SSW,198,0.0,0.0,91,0.00,,,0.00,VWS V14.01,2013-02-16 17:12:00,
2013-02-16 10:17:00,26.9,24.6,30.23,SSW,198,0.0,0.0,91,0.00,,,0.00,VWS V14.01,2013-02-16 17:17:00,
2013-02-16 10:22:00,27.1,24.8,30.23,SSW,198,0.0,2.0,91,0.00,,,0.00,VWS V14.01,2013-02-16 17:22:00,
2013-02-16 10:27:00,27.3,25.0,30.22,SSW,198,0.0,2.0,91,0.00,,,0.00,VWS V14.01,2013-02-16 17:27:00,
2013-02-16 10:32:00,27.5,25.2,30.22,SSW,198,0.0,0.0,91,0.00,,,0.00,VWS V14.01,2013-02-16 17:32:00,
2013-02-16 10:37:00,27.9,25.6,30.22,SSW,198,2.0,2.0,91,0.00,,,0.00,VWS V14.01,2013-02-16 17:37:00,
2013-02-16 10:42:00,28.2,25.9,30.22,SSW,198,1.0,3.0,91,0.00,,,0.00,VWS V14.01,2013-02-16 17:42:00,
2013-02-16 10:47:00,28.2,25.9,30.22,SSW,198,0.0,3.0,91,0.00,,,0.00,VWS V14.01,2013-02-16 17:47:00,
2013-02-16 10:52:00,28.3,26.0,30.22,SSW,198,0.0,3.0,91,0.00,,,0.00,VWS V14.01,2013-02-16 17:52:00,
2013-02-16 10:57:00,28.7,26.4,30.21,SSW,198,0.0,3.0,91,0.00,,,0.00,VWS V14.01,2013-02-16 17:57:00,
2013-02-16 11:02:00,28.9,26.6,30.21,SSW,198,0.0,0.0,91,0.00,,,0.00,VWS V14.01,2013-02-16 18:02:00,
2013-02-16 11:07:00,29.0,26.7,30.21,SSW,198,0.0,0.0,91,0.00,,,0.00,VWS V14.01,2013-02-16 18:07:00,
2013-02-16 11:12:00,29.3,27.0,30.21,SSW,198,0.0,0.0,91,0.00,,,0.00,VWS V14.01,2013-02-16 18:12:00,
2013-02-16 11:17:00,29.7,27.4,30.20,SSW,198,0.0,0.0,91,0.00,,,0.00,VWS V14.01,2013-02-16 18:17:00,
2013-02-16 11:22:00,30.0,27.7,30.20,SSW,198,0.0,0.0,91,0.00,,,0.00,VWS V14.01,2013-02-16 18:22:00,
2013-02-16 11:27:00,30.4,28.1,30.20,SSW,198,0.0,1.0,91,0.00,,,0.00,VWS V14.01,2013-02-16 18:27:00,
2013-02-16 11:32:00,30.7,28.4,30.20,SSW,198,0.0,0.0,91,0.00,,,0.00,VWS V14.01,2013-02-16 18:32:00,
2013-02-16 11:37:00,30.8,28.2,30.19,SW,214,3.0,3.0,90,0.00,,,0.00,VWS V14.01,2013-02-16 18:37:00,
2013-02-16 11:42:00,30.5,27.9,30.19,SW,215,2.0,3.0,90,0.00,,,0.00,VWS V14.01,2013-02-16 18:42:00,
2013-02-16 11:47:00,30.5,27.9,30.18,SW,215,1.0,4.0,90,0.00,,,0.00,VWS V14.01,2013-02-16 18:47:00,
2013-02-16 11:52:00,30.4,27.8,30.18,SW,217,0.0,4.0,90,0.00,,,0.00,VWS V14.01,2013-02-16 18:52:00,
2013-02-16 11:57:00,30.6,28.0,30.18,SW,217,1.0,4.0,90,0.00,,,0.00,VWS V14.01,2013-02-16 18:57:00,
2013-02-16 12:02:00,30.7,28.1,30.18,SW,217,0.0,0.0,90,0.00,,,0.00,VWS V14.01,2013-02-16 19:02:00,
2013-02-16 12:07:00,30.9,28.3,30.17,SW,217,2.0,2.0,90,0.00,,,0.00,VWS V14.01,2013-02-16 19:07:00,
2013-02-16 12:12:00,31.0,28.1,30.17,SW,217,0.0,3.0,89,0.00,,,0.00,VWS V14.01,2013-02-16 19:12:00,
2013-02-16 12:17:00,31.2,28.6,30.17,SW,217,0.0,3.0,90,0.00,,,0.00,VWS V14.01,2013-02-16 19:17:00,
2013-02-16 12:22:00,31.2,28.3,30.16,SW,217,2.0,3.0,89,0.00,,,0.00,VWS V14.01,2013-02-16 19:22:00,
2013-02-16 12:27:00,31.3,28.4,30.16,SW,217,3.0,3.0,89,0.00,,,0.00,VWS V14.01,2013-02-16 19:27:00,
2013-02-16 12:32:00,31.5,28.4,30.15,SW,218,0.0,0.0,88,0.00,,,0.00,VWS V14.01,2013-02-16 19:32:00,
2013-02-16 12:37:00,31.7,28.6,30.15,SW,218,0.0,2.0,88,0.00,,,0.00,VWS V14.01,2013-02-16 19:37:00,
2013-02-16 12:42:00,32.0,28.9,30.15,SW,218,0.0,2.0,88,0.00,,,0.00,VWS V14.01,2013-02-16 19:42:00,
2013-02-16 12:47:00,32.2,29.0,30.15,SW,227,3.0,4.0,88,0.00,,,0.00,VWS V14.01,2013-02-16 19:47:00,
2013-02-16 12:52:00,32.2,28.8,30.14,WNW,301,1.0,5.0,87,0.00,,,0.00,VWS V14.01,2013-02-16 19:52:00,
2013-02-16 12:57:00,32.4,29.0,30.13,WNW,301,0.0,5.0,87,0.00,,,0.00,VWS V14.01,2013-02-16 19:57:00,
2013-02-16 13:02:00,32.7,29.0,30.14,WNW,301,0.0,0.0,86,0.00,,,0.00,VWS V14.01,2013-02-16 20:02:00,
2013-02-16 13:07:00,32.9,28.9,30.13,WNW,301,1.0,3.0,85,0.00,,,0.00,VWS V14.01,2013-02-16 20:07:00,
2013-02-16 13:12:00,33.0,29.0,30.13,WNW,301,1.0,3.0,85,0.00,,,0.00,VWS V14.01,2013-02-16 20:12:00,
2013-02-16 13:17:00,33.1,29.1,30.13,WNW,301,0.0,3.0,85,0.00,,,0.00,VWS V14.01,2013-02-16 20:17:00,
2013-02-16 13:22:00,33.3,29.0,30.12,WNW,301,0.0,3.0,84,0.00,,,0.00,VWS V14.01,2013-02-16 20:22:00,
2013-02-16 13:27:00,33.4,29.1,30.12,WNW,301,1.0,3.0,84,0.00,,,0.00,VWS V14.01,2013-02-16 20:27:00,
2013-02-16 13:32:00,33.4,28.8,30.12,WNW,301,3.0,3.0,83,0.00,,,0.00,VWS V14.01,2013-02-16 20:32:00,
2013-02-16 13:37:00,33.4,28.8,30.11,WNW,301,0.0,3.0,83,0.00,,,0.00,VWS V14.01,2013-02-16 20:37:00,
2013-02-16 13:42:00,33.4,28.8,30.11,WNW,301,0.0,3.0,83,0.00,,,0.00,VWS V14.01,2013-02-16 20:42:00,
2013-02-16 13:47:00,33.6,29.0,30.11,WNW,302,3.0,5.0,83,0.00,,,0.00,VWS V14.01,2013-02-16 20:47:00,
2013-02-16 13:52:00,33.7,29.1,30.10,WNW,302,2.0,5.0,83,0.00,,,0.00,VWS V14.01,2013-02-16 20:52:00,
2013-02-16 13:57:00,33.8,29.2,30.10,NNW,333,0.0,5.0,83,0.00,,,0.00,VWS V14.01,2013-02-16 20:57:00,
2013-02-16 14:02:00,33.9,29.0,30.10,NNW,344,4.0,5.0,82,0.00,,,0.00,VWS V14.01,2013-02-16 21:02:00,
2013-02-16 14:07:00,33.9,29.0,30.09,NNW,344,0.0,5.0,82,0.00,,,0.00,VWS V14.01,2013-02-16 21:07:00,
2013-02-16 14:12:00,33.9,29.0,30.09,North,349,3.0,5.0,82,0.00,,,0.00,VWS V14.01,2013-02-16 21:12:00,
2013-02-16 14:17:00,34.2,29.3,30.08,North,355,4.0,5.0,82,0.00,,,0.00,VWS V14.01,2013-02-16 21:17:00,
2013-02-16 14:22:00,34.2,29.3,30.08,North,360,4.0,5.0,82,0.00,,,0.00,VWS V14.01,2013-02-16 21:22:00,
2013-02-16 14:27:00,34.0,29.1,30.08,North,360,3.0,5.0,82,0.00,,,0.00,VWS V14.01,2013-02-16 21:27:00,
2013-02-16 14:32:00,33.9,29.0,30.08,NNW,348,6.0,7.0,82,0.00,,,0.00,VWS V14.01,2013-02-16 21:32:00,
2013-02-16 14:37:00,33.8,28.9,30.07,North,5,2.0,7.0,82,0.00,,,0.00,VWS V14.01,2013-02-16 21:37:00,
2013-02-16 14:42:00,33.9,29.0,30.07,NNE,18,3.0,7.0,82,0.00,,,0.00,VWS V14.01,2013-02-16 21:42:00,
2013-02-16 14:47:00,34.0,29.1,30.07,NNE,18,3.0,7.0,82,0.00,,,0.00,VWS V14.01,2013-02-16 21:47:00,
2013-02-16 14:52:00,34.1,29.2,30.06,NNE,18,3.0,7.0,82,0.00,,,0.00,VWS V14.01,2013-02-16 21:52:00,
2013-02-16 14:57:00,34.0,29.1,30.06,NNE,18,3.0,7.0,82,0.00,,,0.00,VWS V14.01,2013-02-16 21:57:00,
2013-02-16 15:02:00,33.9,29.0,30.06,NNE,18,3.0,3.0,82,0.00,,,0.00,VWS V14.01,2013-02-16 22:02:00,
2013-02-16 15:07:00,33.8,29.2,30.05,NNE,18,0.0,3.0,83,0.00,,,0.00,VWS V14.01,2013-02-16 22:07:00,
2013-02-16 15:12:00,33.8,28.9,30.05,NNE,18,2.0,3.0,82,0.00,,,0.00,VWS V14.01,2013-02-16 22:12:00,
2013-02-16 15:17:00,33.9,29.0,30.05,NNE,18,0.0,3.0,82,0.00,,,0.00,VWS V14.01,2013-02-16 22:17:00,
2013-02-16 15:22:00,34.0,29.1,30.05,NNE,18,0.0,3.0,82,0.00,,,0.00,VWS V14.01,2013-02-16 22:22:00,
2013-02-16 15:27:00,34.0,29.1,30.04,NNE,18,0.0,3.0,82,0.00,,,0.00,VWS V14.01,2013-02-16 22:27:00,
2013-02-16 15:32:00,34.1,29.2,30.04,NNE,18,0.0,0.0,82,0.00,,,0.00,VWS V14.01,2013-02-16 22:32:00,
2013-02-16 15:37:00,34.1,29.2,30.03,NNE,18,0.0,0.0,82,0.00,,,0.00,VWS V14.01,2013-02-16 22:37:00,
2013-02-16 15:42:00,34.1,29.2,30.03,NNE,18,0.0,2.0,82,0.00,,,0.00,VWS V14.01,2013-02-16 22:42:00,
2013-02-16 15:47:00,33.9,29.0,30.03,NNE,18,0.0,3.0,82,0.00,,,0.00,VWS V14.01,2013-02-16 22:47:00,
2013-02-16 15:52:00,33.8,28.9,30.03,NNE,18,3.0,3.0,82,0.00,,,0.00,VWS V14.01,2013-02-16 22:52:00,
2013-02-16 15:57:00,33.8,28.9,30.03,NNE,18,2.0,3.0,82,0.00,,,0.00,VWS V14.01,2013-02-16 22:57:00,
2013-02-16 16:02:00,33.9,29.0,30.02,NNE,18,1.0,2.0,82,0.00,,,0.00,VWS V14.01,2013-02-16 23:02:00,
2013-02-16 16:07:00,34.1,29.2,30.02,NNE,18,0.0,3.0,82,0.00,,,0.00,VWS V14.01,2013-02-16 23:07:00,
2013-02-16 16:12:00,34.4,29.5,30.02,NNE,18,0.0,3.0,82,0.00,,,0.00,VWS V14.01,2013-02-16 23:12:00,
2013-02-16 16:17:00,34.4,29.5,30.01,NNE,18,0.0,3.0,82,0.00,,,0.00,VWS V14.01,2013-02-16 23:17:00,
2013-02-16 16:22:00,34.4,29.5,30.01,NNE,18,0.0,0.0,82,0.00,,,0.00,VPLive 1.2.5.27,2013-02-16 23:22:00,
2013-02-16 16:27:00,34.4,29.5,30.01,NNE,18,0.0,3.0,82,0.00,,,0.00,VWS V14.01,2013-02-16 23:27:00,
2013-02-16 16:32:00,34.4,29.5,30.00,NNE,18,0.0,0.0,82,0.00,,,0.00,VWS V14.01,2013-02-16 23:32:00,
2013-02-16 16:37:00,34.4,29.5,30.00,NNE,18,0.0,0.0,82,0.00,,,0.00,VWS V14.01,2013-02-16 23:37:00,
2013-02-16 16:42:00,34.4,29.5,29.99,NNE,18,0.0,0.0,82,0.00,,,0.00,VWS V14.01,2013-02-16 23:42:00,
2013-02-16 16:47:00,34.4,29.2,29.99,NNE,18,0.0,0.0,81,0.00,,,0.00,VPLive 1.2.5.27,2013-02-16 23:47:00,
2013-02-16 16:52:00,34.4,29.5,29.99,NNE,18,1.0,2.0,82,0.00,,,0.00,VWS V14.01,2013-02-16 23:52:00,
2013-02-16 16:57:00,34.3,29.7,29.99,NNE,18,0.0,3.0,83,0.00,,,0.00,VWS V14.01,2013-02-16 23:57:00,
2013-02-16 17:02:00,34.2,29.3,29.99,NNE,18,0.0,0.0,82,0.00,,,0.00,VPLive 1.2.5.27,2013-02-17 00:02:00,
2013-02-16 17:07:00,33.9,29.3,29.98,NNE,18,3.0,4.0,83,0.00,,,0.00,VPLive 1.2.5.27,2013-02-17 00:07:00,
2013-02-16 17:12:00,33.8,30.9,29.98,NNE,18,0.0,4.0,89,0.00,,,0.00,VWS V14.01,2013-02-17 00:12:00,
2013-02-16 17:17:00,33.6,29.0,29.97,NNE,18,0.0,4.0,83,0.00,,,0.00,VWS V14.01,2013-02-17 00:17:00,
2013-02-16 17:22:00,33.5,29.2,29.97,NNE,18,0.0,4.0,84,0.00,,,0.00,VWS V14.01,2013-02-17 00:22:00,
2013-02-16 17:27:00,33.4,29.1,29.96,NNE,18,0.0,4.0,84,0.00,,,0.00,VWS V14.01,2013-02-17 00:27:00,
2013-02-16 17:32:00,33.4,29.1,29.96,NNE,18,0.0,0.0,84,0.00,,,0.00,VWS V14.01,2013-02-17 00:32:00,
2013-02-16 17:37:00,33.2,28.9,29.96,NNE,18,0.0,0.0,84,0.00,,,0.00,VWS V14.01,2013-02-17 00:37:00,
2013-02-16 17:42:00,33.0,28.7,29.96,NNE,18,3.0,3.0,84,0.00,,,0.00,VWS V14.01,2013-02-17 00:42:00,
2013-02-16 17:47:00,32.9,28.6,29.96,NNE,18,2.0,3.0,84,0.00,,,0.00,VWS V14.01,2013-02-17 00:47:00,
2013-02-16 17:52:00,32.9,28.9,29.96,NNE,18,0.0,3.0,85,0.00,,,0.00,VWS V14.01,2013-02-17 00:52:00,
2013-02-16 17:57:00,32.7,28.7,29.96,NNE,18,0.0,3.0,85,0.00,,,0.00,VWS V14.01,2013-02-17 00:57:00,
2013-02-16 18:02:00,32.7,28.7,29.96,NNE,24,3.0,3.0,85,0.00,,,0.00,VWS V14.01,2013-02-17 01:02:00,
2013-02-16 18:07:00,32.9,28.9,29.96,East,89,2.0,5.0,85,0.00,,,0.00,VWS V14.01,2013-02-17 01:07:00,
2013-02-16 18:12:00,33.1,29.4,29.96,ESE,117,4.0,6.0,86,0.01,,,0.01,VWS V14.01,2013-02-17 01:12:00,
2013-02-16 18:17:00,33.7,30.2,29.96,ESE,117,2.0,6.0,87,0.01,,,0.01,VWS V14.01,2013-02-17 01:17:00,
2013-02-16 18:22:00,34.0,30.5,29.96,ESE,119,0.0,6.0,87,0.01,,,0.01,VWS V14.01,2013-02-17 01:22:00,
2013-02-16 18:27:00,34.0,30.5,29.96,ESE,119,2.0,6.0,87,0.01,,,0.01,VWS V14.01,2013-02-17 01:27:00,
2013-02-16 18:32:00,33.8,30.1,29.96,ESE,119,2.0,2.0,86,0.01,,,0.01,VWS V14.01,2013-02-17 01:32:00,
2013-02-16 18:37:00,33.4,30.0,29.96,ESE,119,0.0,4.0,87,0.01,,,0.01,VWS V14.01,2013-02-17 01:37:00,
2013-02-16 18:42:00,33.2,30.0,29.96,ESE,119,4.0,4.0,88,0.01,,,0.01,VWS V14.01,2013-02-17 01:42:00,
2013-02-16 18:47:00,33.6,30.7,29.96,ESE,105,0.0,4.0,89,0.02,,,0.02,VWS V14.01,2013-02-17 01:47:00,
2013-02-16 18:52:00,33.5,30.6,29.96,SE,128,0.0,5.0,89,0.03,,,0.03,VWS V14.01,2013-02-17 01:52:00,
2013-02-16 18:57:00,34.0,31.4,29.96,South,174,5.0,8.0,90,0.03,,,0.03,VWS V14.01,2013-02-17 01:57:00,
2013-02-16 19:02:00,35.2,32.6,29.96,South,186,5.0,5.0,90,0.03,,,0.03,VWS V14.01,2013-02-17 02:02:00,
2013-02-16 19:07:00,35.9,33.3,29.95,South,190,6.0,8.0,90,0.03,,,0.03,VWS V14.01,2013-02-17 02:07:00,
2013-02-16 19:12:00,36.7,34.0,29.95,South,186,7.0,11.0,90,0.03,,,0.03,VWS V14.01,2013-02-17 02:12:00,
2013-02-16 19:17:00,37.3,34.6,29.95,South,190,12.0,17.0,90,0.03,,,0.03,VWS V14.01,2013-02-17 02:17:00,
2013-02-16 19:22:00,37.8,34.3,29.95,SSW,207,15.0,20.0,87,0.03,,,0.03,VWS V14.01,2013-02-17 02:22:00,
2013-02-16 19:27:00,38.0,33.9,29.94,South,170,11.0,20.0,85,0.03,,,0.03,VWS V14.01,2013-02-17 02:27:00,
2013-02-16 19:32:00,37.9,33.8,29.94,South,184,11.0,19.0,85,0.02,,,0.03,VWS V14.01,2013-02-17 02:32:00,
2013-02-16 19:37:00,37.9,33.8,29.94,SSW,192,12.0,21.0,85,0.02,,,0.03,VWS V14.01,2013-02-17 02:37:00,
2013-02-16 19:42:00,37.8,33.7,29.94,SSW,204,11.0,21.0,85,0.02,,,0.03,VWS V14.01,2013-02-17 02:42:00,
2013-02-16 19:47:00,37.6,33.8,29.94,South,172,17.0,21.0,86,0.02,,,0.03,VWS V14.01,2013-02-17 02:47:00,
2013-02-16 19:52:00,37.5,33.7,29.93,SSW,192,17.0,21.0,86,0.02,,,0.03,VWS V14.01,2013-02-17 02:52:00,
2013-02-16 19:57:00,37.6,33.8,29.93,South,190,13.0,22.0,86,0.02,,,0.03,VWS V14.01,2013-02-17 02:57:00,
2013-02-16 20:02:00,37.6,33.8,29.93,SSW,209,16.0,16.0,86,0.00,,,0.03,VWS V14.01,2013-02-17 03:02:00,
2013-02-16 20:07:00,37.5,33.7,29.93,SSE,161,14.0,21.0,86,0.00,,,0.03,VWS V14.01,2013-02-17 03:07:00,
2013-02-16 20:12:00,37.1,33.6,29.93,South,180,8.0,21.0,87,0.00,,,0.03,VWS V14.01,2013-02-17 03:12:00,
2013-02-16 20:17:00,36.8,33.3,29.92,SSW,199,11.0,21.0,87,0.00,,,0.03,VWS V14.01,2013-02-17 03:17:00,
2013-02-16 20:22:00,36.9,33.4,29.92,South,189,14.0,21.0,87,0.00,,,0.03,VWS V14.01,2013-02-17 03:22:00,
2013-02-16 20:27:00,36.9,33.4,29.92,SW,228,11.0,21.0,87,0.00,,,0.03,VWS V14.01,2013-02-17 03:27:00,
2013-02-16 20:32:00,36.8,33.3,29.92,SSW,192,13.0,13.0,87,0.00,,,0.03,VWS V14.01,2013-02-17 03:32:00,
2013-02-16 20:37:00,36.7,33.2,29.93,South,186,9.0,21.0,87,0.00,,,0.03,VWS V14.01,2013-02-17 03:37:00,
2013-02-16 20:42:00,36.5,33.0,29.93,South,189,17.0,22.0,87,0.00,,,0.03,VWS V14.01,2013-02-17 03:42:00,
2013-02-16 20:47:00,36.5,33.0,29.92,SSW,196,13.0,22.0,87,0.00,,,0.03,VWS V14.01,2013-02-17 03:47:00,
2013-02-16 20:52:00,36.5,33.0,29.92,SSW,213,12.0,22.0,87,0.00,,,0.03,VWS V14.01,2013-02-17 03:52:00,
2013-02-16 20:57:00,36.4,32.6,29.92,SSW,197,10.0,22.0,86,0.00,,,0.03,VWS V14.01,2013-02-17 03:57:00,
2013-02-16 21:02:00,36.3,32.5,29.92,SSW,202,11.0,13.0,86,0.00,,,0.03,VWS V14.01,2013-02-17 04:02:00,
2013-02-16 21:07:00,36.5,32.4,29.91,South,183,9.0,17.0,85,0.00,,,0.03,VWS V14.01,2013-02-17 04:07:00,
2013-02-16 21:12:00,36.9,32.2,29.92,South,190,14.0,17.0,83,0.00,,,0.03,VWS V14.01,2013-02-17 04:12:00,
2013-02-16 21:17:00,37.2,31.9,29.91,South,184,15.0,19.0,81,0.00,,,0.03,VWS V14.01,2013-02-17 04:17:00,
2013-02-16 21:22:00,37.3,31.7,29.91,SSW,210,20.0,23.0,80,0.00,,,0.03,VWS V14.01,2013-02-17 04:22:00,
2013-02-16 21:27:00,37.0,31.7,29.92,SW,222,22.0,24.0,81,0.00,,,0.03,VWS V14.01,2013-02-17 04:27:00,
2013-02-16 21:32:00,36.4,31.4,29.93,SSW,211,14.0,17.0,82,0.00,,,0.03,VWS V14.01,2013-02-17 04:32:00,
2013-02-16 21:37:00,36.3,31.6,29.92,SSW,207,20.0,21.0,83,0.00,,,0.03,VWS V14.01,2013-02-17 04:37:00,
2013-02-16 21:42:00,36.7,31.4,29.92,SSW,198,16.0,25.0,81,0.00,,,0.03,VWS V14.01,2013-02-17 04:42:00,
2013-02-16 21:47:00,36.5,31.5,29.92,SW,230,14.0,30.0,82,0.00,,,0.03,VWS V14.01,2013-02-17 04:47:00,
2013-02-16 21:52:00,36.4,31.4,29.92,SSW,196,15.0,30.0,82,0.00,,,0.03,VWS V14.01,2013-02-17 04:52:00,
2013-02-16 21:57:00,36.4,31.4,29.92,South,176,19.0,30.0,82,0.00,,,0.03,VWS V14.01,2013-02-17 04:57:00,
2013-02-16 22:00:00,36.2,31.5,29.92,South,186,15.0,30.0,83,0.00,,,0.03,VWS V14.01,2013-02-17 05:00:00,
2013-02-16 22:05:00,36.1,31.5,29.92,SSW,202,14.0,21.0,83,0.00,,,0.03,VWS V14.01,2013-02-17 05:05:00,
2013-02-16 22:10:00,35.9,31.2,29.92,SW,214,13.0,21.0,83,0.00,,,0.03,VWS V14.01,2013-02-17 05:10:00,
2013-02-16 22:15:00,35.8,31.1,29.91,SSW,209,15.0,22.0,83,0.00,,,0.03,VWS V14.01,2013-02-17 05:15:00,
2013-02-16 22:20:00,35.8,31.1,29.92,South,181,16.0,22.0,83,0.00,,,0.03,VWS V14.01,2013-02-17 05:20:00,
2013-02-16 22:25:00,35.8,30.9,29.92,South,186,14.0,22.0,82,0.00,,,0.03,VWS V14.01,2013-02-17 05:25:00,
2013-02-16 22:30:00,35.7,30.5,29.92,SSW,199,16.0,23.0,81,0.00,,,0.03,VWS V14.01,2013-02-17 05:30:00,
2013-02-16 22:35:00,35.6,30.4,29.91,South,182,17.0,22.0,81,0.00,,,0.03,VWS V14.01,2013-02-17 05:35:00,
2013-02-16 22:40:00,35.5,30.0,29.92,SSW,205,15.0,22.0,80,0.00,,,0.03,VWS V14.01,2013-02-17 05:40:00,
2013-02-16 22:45:00,35.6,30.0,29.92,SSW,213,9.0,24.0,80,0.00,,,0.03,VWS V14.01,2013-02-17 05:45:00,
2013-02-16 22:50:00,35.5,29.6,29.92,South,184,9.0,24.0,79,0.00,,,0.03,VWS V14.01,2013-02-17 05:50:00,
2013-02-16 22:55:00,35.7,29.2,29.93,South,187,15.0,24.0,77,0.00,,,0.03,VWS V14.01,2013-02-17 05:55:00,
2013-02-16 23:00:00,35.9,29.1,29.93,SSW,198,13.0,24.0,76,0.00,,,0.03,VWS V14.01,2013-02-17 06:00:00,
2013-02-16 23:05:00,35.9,28.8,29.93,SSW,202,13.0,23.0,75,0.00,,,0.03,VWS V14.01,2013-02-17 06:05:00,
2013-02-16 23:10:00,36.1,28.6,29.93,SSW,202,16.0,24.0,74,0.00,,,0.03,VWS V14.01,2013-02-17 06:10:00,
2013-02-16 23:15:00,36.0,28.5,29.93,SSW,199,15.0,24.0,74,0.00,,,0.03,VWS V14.01,2013-02-17 06:15:00,
2013-02-16 23:20:00,35.9,28.4,29.93,SSW,213,16.0,24.0,74,0.00,,,0.03,VWS V14.01,2013-02-17 06:20:00,
2013-02-16 23:25:00,35.8,28.3,29.93,SSW,201,11.0,24.0,74,0.00,,,0.03,VWS V14.01,2013-02-17 06:25:00,
2013-02-16 23:30:00,35.6,28.5,29.92,SSW,197,14.0,24.0,75,0.00,,,0.03,VWS V14.01,2013-02-17 06:30:00,
2013-02-16 23:35:00,35.8,28.3,29.92,South,179,8.0,16.0,74,0.00,,,0.03,VWS V14.01,2013-02-17 06:35:00,
2013-02-16 23:40:00,35.9,28.4,29.92,South,173,9.0,16.0,74,0.00,,,0.03,VWS V14.01,2013-02-17 06:40:00,
2013-02-16 23:45:00,35.7,28.2,29.92,SE,136,5.0,16.0,74,0.00,,,0.03,VWS V14.01,2013-02-17 06:45:00,
2013-02-16 23:50:00,35.7,28.2,29.92,SSW,192,6.0,16.0,74,0.00,,,0.03,VWS V14.01,2013-02-17 06:50:00,
2013-02-16 23:55:00,35.5,28.0,29.93,South,174,9.0,16.0,74,0.00,,,0.03,VWS V14.01,2013-02-17 06:55:00,